sensor_id;sensor_type;location;lat;lon;timestamp;pressure;altitude;pressure_sealevel;temperature;humidity
44457;BME280;30159;49.316;8.558;2023-06-04T00:01:57;100411.88;;;18.28;53.00
44457;BME280;30159;49.316;8.558;2023-06-04T00:04:25;100425.81;;;18.36;52.47
44457;BME280;30159;49.316;8.558;2023-06-04T00:06:53;100356.88;;;17.88;51.75
44457;BME280;30159;49.316;8.558;2023-06-04T00:09:20;100420.06;;;18.28;52.20
44457;BME280;30159;49.316;8.558;2023-06-04T00:11:47;100419.41;;;18.31;51.63
44457;BME280;30159;49.316;8.558;2023-06-04T00:14:13;100377.66;;;18.01;51.53
44457;BME280;30159;49.316;8.558;2023-06-04T00:16:40;100413.00;;;18.27;52.21
44457;BME280;30159;49.316;8.558;2023-06-04T00:19:08;100415.31;;;18.17;51.67
44457;BME280;30159;49.316;8.558;2023-06-04T00:21:34;100417.25;;;18.16;51.78
44457;BME280;30159;49.316;8.558;2023-06-04T00:24:02;100424.59;;;18.24;51.94
44457;BME280;30159;49.316;8.558;2023-06-04T00:26:29;100415.28;;;18.25;51.22
44457;BME280;30159;49.316;8.558;2023-06-04T00:28:55;100416.75;;;18.23;50.69
44457;BME280;30159;49.316;8.558;2023-06-04T00:31:22;100417.75;;;18.18;51.83
44457;BME280;30159;49.316;8.558;2023-06-04T00:33:49;100414.13;;;18.26;51.88
44457;BME280;30159;49.316;8.558;2023-06-04T00:36:15;100413.94;;;18.31;51.51
44457;BME280;30159;49.316;8.558;2023-06-04T00:38:42;100425.00;;;18.35;51.21
44457;BME280;30159;49.316;8.558;2023-06-04T00:41:10;100400.44;;;18.05;51.29
44457;BME280;30159;49.316;8.558;2023-06-04T00:43:36;100408.88;;;18.21;50.91
44457;BME280;30159;49.316;8.558;2023-06-04T00:46:03;100375.00;;;17.93;51.08
44457;BME280;30159;49.316;8.558;2023-06-04T00:48:29;100426.47;;;18.32;51.56
44457;BME280;30159;49.316;8.558;2023-06-04T00:50:56;100432.22;;;18.40;50.78
44457;BME280;30159;49.316;8.558;2023-06-04T00:53:24;100433.53;;;18.33;50.77
44457;BME280;30159;49.316;8.558;2023-06-04T00:55:51;100431.44;;;18.39;51.14
44457;BME280;30159;49.316;8.558;2023-06-04T00:58:19;100436.06;;;18.39;50.63
44457;BME280;30159;49.316;8.558;2023-06-04T01:00:45;100438.66;;;18.35;51.02
44457;BME280;30159;49.316;8.558;2023-06-04T01:03:14;100441.69;;;18.42;51.20
44457;BME280;30159;49.316;8.558;2023-06-04T01:05:47;100443.41;;;18.47;51.77
44457;BME280;30159;49.316;8.558;2023-06-04T01:08:14;100444.59;;;18.37;52.88
44457;BME280;30159;49.316;8.558;2023-06-04T01:10:50;100442.19;;;18.36;51.01
44457;BME280;30159;49.316;8.558;2023-06-04T01:13:18;100400.97;;;17.99;52.80
44457;BME280;30159;49.316;8.558;2023-06-04T01:15:45;100443.34;;;18.35;52.49
44457;BME280;30159;49.316;8.558;2023-06-04T01:18:15;100438.53;;;18.31;52.36
44457;BME280;30159;49.316;8.558;2023-06-04T01:20:54;100436.31;;;18.25;53.72
44457;BME280;30159;49.316;8.558;2023-06-04T01:23:28;100441.47;;;18.18;52.48
44457;BME280;30159;49.316;8.558;2023-06-04T01:26:00;100443.75;;;18.16;52.32
44457;BME280;30159;49.316;8.558;2023-06-04T01:28:30;100444.56;;;18.16;51.18
44457;BME280;30159;49.316;8.558;2023-06-04T01:30:57;100441.34;;;18.14;52.65
44457;BME280;30159;49.316;8.558;2023-06-04T01:33:25;100379.56;;;17.71;53.75
44457;BME280;30159;49.316;8.558;2023-06-04T01:35:51;100443.13;;;18.10;53.58
44457;BME280;30159;49.316;8.558;2023-06-04T01:38:18;100440.94;;;17.95;53.10
44457;BME280;30159;49.316;8.558;2023-06-04T01:40:45;100389.09;;;17.56;52.60
44457;BME280;30159;49.316;8.558;2023-06-04T01:43:12;100443.22;;;17.93;52.26
44457;BME280;30159;49.316;8.558;2023-06-04T01:45:40;100442.47;;;17.83;53.41
44457;BME280;30159;49.316;8.558;2023-06-04T01:48:06;100433.47;;;17.74;52.01
44457;BME280;30159;49.316;8.558;2023-06-04T01:50:33;100449.19;;;17.77;52.57
44457;BME280;30159;49.316;8.558;2023-06-04T01:53:00;100455.78;;;17.76;52.84
44457;BME280;30159;49.316;8.558;2023-06-04T01:55:27;100451.16;;;17.68;53.55
44457;BME280;30159;49.316;8.558;2023-06-04T01:57:55;100415.13;;;17.36;52.90
44457;BME280;30159;49.316;8.558;2023-06-04T02:00:21;100445.22;;;17.66;54.18
44457;BME280;30159;49.316;8.558;2023-06-04T02:02:49;100446.81;;;17.67;52.73
44457;BME280;30159;49.316;8.558;2023-06-04T02:05:16;100444.72;;;17.64;53.95
44457;BME280;30159;49.316;8.558;2023-06-04T02:07:44;100443.47;;;17.53;57.45
44457;BME280;30159;49.316;8.558;2023-06-04T02:10:12;100443.81;;;17.42;60.13
44457;BME280;30159;49.316;8.558;2023-06-04T02:12:51;100445.94;;;17.19;62.10
44457;BME280;30159;49.316;8.558;2023-06-04T02:15:18;100455.91;;;16.89;64.16
44457;BME280;30159;49.316;8.558;2023-06-04T02:17:45;100449.75;;;16.66;65.40
44457;BME280;30159;49.316;8.558;2023-06-04T02:20:14;100448.13;;;16.48;66.44
44457;BME280;30159;49.316;8.558;2023-06-04T02:22:40;100458.53;;;16.37;67.87
44457;BME280;30159;49.316;8.558;2023-06-04T02:25:07;100460.44;;;16.28;68.31
44457;BME280;30159;49.316;8.558;2023-06-04T02:27:35;100464.22;;;16.09;69.63
44457;BME280;30159;49.316;8.558;2023-06-04T02:30:01;100455.72;;;16.02;69.25
44457;BME280;30159;49.316;8.558;2023-06-04T02:32:28;100458.28;;;16.07;68.92
44457;BME280;30159;49.316;8.558;2023-06-04T02:34:55;100465.59;;;15.98;69.43
44457;BME280;30159;49.316;8.558;2023-06-04T02:37:23;100467.19;;;15.90;69.74
44457;BME280;30159;49.316;8.558;2023-06-04T02:39:50;100473.75;;;15.67;71.42
44457;BME280;30159;49.316;8.558;2023-06-04T02:42:16;100467.56;;;15.52;71.79
44457;BME280;30159;49.316;8.558;2023-06-04T02:44:43;100468.03;;;15.46;72.56
44457;BME280;30159;49.316;8.558;2023-06-04T02:47:09;100458.25;;;15.45;72.85
44457;BME280;30159;49.316;8.558;2023-06-04T02:49:36;100470.75;;;15.46;73.25
44457;BME280;30159;49.316;8.558;2023-06-04T02:52:03;100468.28;;;15.35;74.20
44457;BME280;30159;49.316;8.558;2023-06-04T02:54:31;100467.59;;;15.30;74.68
44457;BME280;30159;49.316;8.558;2023-06-04T02:56:57;100464.09;;;15.29;74.87
44457;BME280;30159;49.316;8.558;2023-06-04T02:59:24;100466.47;;;15.31;74.86
44457;BME280;30159;49.316;8.558;2023-06-04T03:01:51;100464.81;;;15.21;75.04
44457;BME280;30159;49.316;8.558;2023-06-04T03:04:17;100466.38;;;15.13;75.73
44457;BME280;30159;49.316;8.558;2023-06-04T03:06:45;100470.81;;;15.09;75.33
44457;BME280;30159;49.316;8.558;2023-06-04T03:09:13;100433.03;;;14.99;75.13
44457;BME280;30159;49.316;8.558;2023-06-04T03:11:41;100471.88;;;15.22;74.51
44457;BME280;30159;49.316;8.558;2023-06-04T03:14:07;100467.16;;;15.14;74.75
44457;BME280;30159;49.316;8.558;2023-06-04T03:16:34;100464.75;;;15.12;74.82
44457;BME280;30159;49.316;8.558;2023-06-04T03:19:05;100467.66;;;15.16;74.56
44457;BME280;30159;49.316;8.558;2023-06-04T03:21:31;100462.16;;;15.07;74.23
44457;BME280;30159;49.316;8.558;2023-06-04T03:23:58;100463.56;;;15.05;74.17
44457;BME280;30159;49.316;8.558;2023-06-04T03:26:24;100470.59;;;15.06;73.99
44457;BME280;30159;49.316;8.558;2023-06-04T03:28:53;100471.44;;;15.06;73.47
44457;BME280;30159;49.316;8.558;2023-06-04T03:31:19;100471.59;;;15.10;73.63
44457;BME280;30159;49.316;8.558;2023-06-04T03:33:46;100477.03;;;15.10;72.92
44457;BME280;30159;49.316;8.558;2023-06-04T03:36:12;100464.31;;;14.96;73.33
44457;BME280;30159;49.316;8.558;2023-06-04T03:38:39;100481.72;;;14.95;73.22
44457;BME280;30159;49.316;8.558;2023-06-04T03:41:05;100478.81;;;14.92;73.74
44457;BME280;30159;49.316;8.558;2023-06-04T03:43:32;100477.50;;;14.89;73.92
44457;BME280;30159;49.316;8.558;2023-06-04T03:45:59;100476.03;;;14.83;74.03
44457;BME280;30159;49.316;8.558;2023-06-04T03:48:26;100473.47;;;14.87;74.22
44457;BME280;30159;49.316;8.558;2023-06-04T03:50:53;100477.63;;;14.84;74.56
44457;BME280;30159;49.316;8.558;2023-06-04T03:53:19;100473.81;;;14.85;74.63
44457;BME280;30159;49.316;8.558;2023-06-04T03:55:45;100478.31;;;14.90;73.45
44457;BME280;30159;49.316;8.558;2023-06-04T03:58:12;100477.50;;;14.89;73.75
44457;BME280;30159;49.316;8.558;2023-06-04T04:00:40;100479.28;;;14.94;73.28
44457;BME280;30159;49.316;8.558;2023-06-04T04:03:07;100494.38;;;15.00;72.89
44457;BME280;30159;49.316;8.558;2023-06-04T04:05:35;100492.03;;;15.07;72.77
44457;BME280;30159;49.316;8.558;2023-06-04T04:08:02;100490.50;;;15.15;72.10
44457;BME280;30159;49.316;8.558;2023-06-04T04:10:29;100489.53;;;15.11;72.68
44457;BME280;30159;49.316;8.558;2023-06-04T04:12:56;100492.28;;;15.20;71.94
44457;BME280;30159;49.316;8.558;2023-06-04T04:15:23;100491.91;;;15.12;71.72
44457;BME280;30159;49.316;8.558;2023-06-04T04:17:50;100490.13;;;15.08;72.11
44457;BME280;30159;49.316;8.558;2023-06-04T04:20:17;100492.34;;;15.06;71.69
44457;BME280;30159;49.316;8.558;2023-06-04T04:22:44;100480.00;;;15.00;71.88
44457;BME280;30159;49.316;8.558;2023-06-04T04:25:11;100490.25;;;15.03;71.83
44457;BME280;30159;49.316;8.558;2023-06-04T04:27:37;100492.25;;;15.11;71.80
44457;BME280;30159;49.316;8.558;2023-06-04T04:30:07;100500.94;;;15.22;71.15
44457;BME280;30159;49.316;8.558;2023-06-04T04:32:34;100456.72;;;15.07;69.68
44457;BME280;30159;49.316;8.558;2023-06-04T04:35:04;100508.19;;;15.49;70.69
44457;BME280;30159;49.316;8.558;2023-06-04T04:37:34;100513.31;;;15.73;69.74
44457;BME280;30159;49.316;8.558;2023-06-04T04:40:06;100510.88;;;15.94;69.20
44457;BME280;30159;49.316;8.558;2023-06-04T04:42:35;100511.81;;;16.20;67.92
44457;BME280;30159;49.316;8.558;2023-06-04T04:45:01;100514.13;;;16.44;68.70
44457;BME280;30159;49.316;8.558;2023-06-04T04:47:28;100516.91;;;16.71;65.91
44457;BME280;30159;49.316;8.558;2023-06-04T04:49:54;100521.44;;;16.84;64.67
44457;BME280;30159;49.316;8.558;2023-06-04T04:52:21;100511.53;;;17.05;66.94
44457;BME280;30159;49.316;8.558;2023-06-04T04:54:49;100521.13;;;16.94;63.11
44457;BME280;30159;49.316;8.558;2023-06-04T04:57:16;100525.16;;;16.88;63.64
44457;BME280;30159;49.316;8.558;2023-06-04T04:59:42;100528.50;;;16.85;63.91
44457;BME280;30159;49.316;8.558;2023-06-04T05:02:09;100526.41;;;16.82;63.86
44457;BME280;30159;49.316;8.558;2023-06-04T05:04:35;100527.78;;;16.71;63.42
44457;BME280;30159;49.316;8.558;2023-06-04T05:07:02;100531.19;;;16.76;64.56
44457;BME280;30159;49.316;8.558;2023-06-04T05:09:28;100538.16;;;17.09;62.39
44457;BME280;30159;49.316;8.558;2023-06-04T05:11:56;100540.56;;;17.10;62.37
44457;BME280;30159;49.316;8.558;2023-06-04T05:14:23;100540.41;;;17.06;62.20
44457;BME280;30159;49.316;8.558;2023-06-04T05:16:49;100527.56;;;16.98;62.60
44457;BME280;30159;49.316;8.558;2023-06-04T05:19:16;100499.00;;;16.87;61.47
44457;BME280;30159;49.316;8.558;2023-06-04T05:21:43;100542.00;;;17.25;61.07
44457;BME280;30159;49.316;8.558;2023-06-04T05:24:09;100540.03;;;17.69;61.01
44457;BME280;30159;49.316;8.558;2023-06-04T05:26:36;100517.88;;;17.79;59.22
44457;BME280;30159;49.316;8.558;2023-06-04T05:29:06;100542.91;;;18.37;58.55
44457;BME280;30159;49.316;8.558;2023-06-04T05:31:32;100511.31;;;18.57;57.07
44457;BME280;30159;49.316;8.558;2023-06-04T05:34:00;100546.66;;;18.92;56.05
44457;BME280;30159;49.316;8.558;2023-06-04T05:36:27;100532.44;;;19.41;55.70
44457;BME280;30159;49.316;8.558;2023-06-04T05:38:53;100538.19;;;20.76;55.01
44457;BME280;30159;49.316;8.558;2023-06-04T05:41:22;100499.59;;;21.50;51.37
44457;BME280;30159;49.316;8.558;2023-06-04T05:43:49;100542.97;;;22.51;49.45
44457;BME280;30159;49.316;8.558;2023-06-04T05:46:17;100526.41;;;22.83;47.46
44457;BME280;30159;49.316;8.558;2023-06-04T05:48:44;100538.34;;;23.26;47.45
44457;BME280;30159;49.316;8.558;2023-06-04T05:51:13;100537.59;;;24.34;45.76
44457;BME280;30159;49.316;8.558;2023-06-04T05:53:39;100503.13;;;25.34;44.31
44457;BME280;30159;49.316;8.558;2023-06-04T05:56:06;100538.25;;;27.23;42.89
44457;BME280;30159;49.316;8.558;2023-06-04T05:58:33;100544.28;;;28.90;40.06
44457;BME280;30159;49.316;8.558;2023-06-04T06:01:00;100538.84;;;28.54;36.54
44457;BME280;30159;49.316;8.558;2023-06-04T06:03:28;100541.59;;;27.97;39.27
44457;BME280;30159;49.316;8.558;2023-06-04T06:05:54;100531.81;;;29.45;36.50
44457;BME280;30159;49.316;8.558;2023-06-04T06:08:22;100543.63;;;29.63;37.57
44457;BME280;30159;49.316;8.558;2023-06-04T06:10:49;100506.38;;;30.06;36.87
44457;BME280;30159;49.316;8.558;2023-06-04T06:13:15;100546.31;;;31.13;35.12
44457;BME280;30159;49.316;8.558;2023-06-04T06:15:42;100549.66;;;30.59;35.54
44457;BME280;30159;49.316;8.558;2023-06-04T06:18:08;100547.44;;;30.81;35.61
44457;BME280;30159;49.316;8.558;2023-06-04T06:20:36;100547.28;;;29.49;35.94
44457;BME280;30159;49.316;8.558;2023-06-04T06:23:05;100523.38;;;30.60;34.68
44457;BME280;30159;49.316;8.558;2023-06-04T06:25:32;100556.91;;;31.25;34.11
44457;BME280;30159;49.316;8.558;2023-06-04T06:27:59;100550.63;;;29.12;35.14
44457;BME280;30159;49.316;8.558;2023-06-04T06:30:25;100558.53;;;29.94;36.08
44457;BME280;30159;49.316;8.558;2023-06-04T06:32:52;100552.88;;;29.42;36.26
44457;BME280;30159;49.316;8.558;2023-06-04T06:35:19;100566.66;;;30.23;35.22
44457;BME280;30159;49.316;8.558;2023-06-04T06:37:47;100566.97;;;30.36;34.33
44457;BME280;30159;49.316;8.558;2023-06-04T06:40:14;100576.72;;;27.57;36.80
44457;BME280;30159;49.316;8.558;2023-06-04T06:42:40;100553.91;;;28.28;36.23
44457;BME280;30159;49.316;8.558;2023-06-04T06:45:07;100576.66;;;27.39;38.00
44457;BME280;30159;49.316;8.558;2023-06-04T06:47:34;100577.22;;;27.87;37.86
44457;BME280;30159;49.316;8.558;2023-06-04T06:50:01;100571.66;;;29.90;35.44
44457;BME280;30159;49.316;8.558;2023-06-04T06:52:28;100579.78;;;30.67;35.71
44457;BME280;30159;49.316;8.558;2023-06-04T06:54:57;100578.03;;;30.88;34.24
44457;BME280;30159;49.316;8.558;2023-06-04T06:57:23;100585.75;;;29.54;34.65
44457;BME280;30159;49.316;8.558;2023-06-04T06:59:50;100574.72;;;30.07;35.53
44457;BME280;30159;49.316;8.558;2023-06-04T07:02:19;100570.09;;;29.89;35.21
44457;BME280;30159;49.316;8.558;2023-06-04T07:04:45;100580.72;;;27.63;37.62
44457;BME280;30159;49.316;8.558;2023-06-04T07:07:12;100586.28;;;26.34;38.37
44457;BME280;30159;49.316;8.558;2023-06-04T07:09:39;100571.75;;;26.00;40.08
44457;BME280;30159;49.316;8.558;2023-06-04T07:12:07;100581.81;;;25.85;39.64
44457;BME280;30159;49.316;8.558;2023-06-04T07:14:33;100583.78;;;24.90;41.07
44457;BME280;30159;49.316;8.558;2023-06-04T07:17:00;100587.09;;;25.60;40.84
44457;BME280;30159;49.316;8.558;2023-06-04T07:19:27;100588.09;;;26.16;40.35
44457;BME280;30159;49.316;8.558;2023-06-04T07:21:54;100570.91;;;25.96;40.21
44457;BME280;30159;49.316;8.558;2023-06-04T07:24:21;100576.56;;;26.10;39.66
44457;BME280;30159;49.316;8.558;2023-06-04T07:26:47;100579.78;;;26.60;39.72
44457;BME280;30159;49.316;8.558;2023-06-04T07:29:16;100577.66;;;28.65;38.35
44457;BME280;30159;49.316;8.558;2023-06-04T07:31:43;100572.03;;;30.90;36.39
44457;BME280;30159;49.316;8.558;2023-06-04T07:34:10;100563.31;;;32.34;34.26
44457;BME280;30159;49.316;8.558;2023-06-04T07:36:36;100557.06;;;31.11;34.72
44457;BME280;30159;49.316;8.558;2023-06-04T07:39:03;100571.78;;;29.65;36.45
44457;BME280;30159;49.316;8.558;2023-06-04T07:41:30;100571.75;;;29.76;36.37
44457;BME280;30159;49.316;8.558;2023-06-04T07:43:56;100568.50;;;31.54;35.71
44457;BME280;30159;49.316;8.558;2023-06-04T07:46:24;100574.22;;;32.72;33.37
44457;BME280;30159;49.316;8.558;2023-06-04T07:48:51;100573.56;;;32.41;34.76
44457;BME280;30159;49.316;8.558;2023-06-04T07:51:17;100570.63;;;32.01;34.96
44457;BME280;30159;49.316;8.558;2023-06-04T07:53:44;100548.28;;;32.91;33.98
44457;BME280;30159;49.316;8.558;2023-06-04T07:56:11;100577.88;;;32.22;35.00
44457;BME280;30159;49.316;8.558;2023-06-04T07:58:37;100564.81;;;32.39;33.66
44457;BME280;30159;49.316;8.558;2023-06-04T08:01:04;100564.13;;;32.78;34.35
44457;BME280;30159;49.316;8.558;2023-06-04T08:03:32;100565.81;;;31.74;35.18
44457;BME280;30159;49.316;8.558;2023-06-04T08:05:58;100569.78;;;31.12;35.58
44457;BME280;30159;49.316;8.558;2023-06-04T08:08:25;100561.41;;;33.34;33.67
44457;BME280;30159;49.316;8.558;2023-06-04T08:10:52;100568.44;;;33.03;33.89
44457;BME280;30159;49.316;8.558;2023-06-04T08:13:19;100568.94;;;32.07;34.54
44457;BME280;30159;49.316;8.558;2023-06-04T08:15:46;100568.19;;;29.72;37.81
44457;BME280;30159;49.316;8.558;2023-06-04T08:18:13;100571.00;;;27.14;40.36
44457;BME280;30159;49.316;8.558;2023-06-04T08:20:41;100568.28;;;25.39;42.10
44457;BME280;30159;49.316;8.558;2023-06-04T08:23:07;100563.19;;;25.11;44.10
44457;BME280;30159;49.316;8.558;2023-06-04T08:25:34;100570.47;;;25.26;43.68
44457;BME280;30159;49.316;8.558;2023-06-04T08:28:00;100568.94;;;25.62;43.62
44457;BME280;30159;49.316;8.558;2023-06-04T08:30:28;100558.56;;;25.52;43.14
44457;BME280;30159;49.316;8.558;2023-06-04T08:32:54;100566.56;;;25.00;43.84
44457;BME280;30159;49.316;8.558;2023-06-04T08:35:21;100564.63;;;24.74;44.59
44457;BME280;30159;49.316;8.558;2023-06-04T08:37:49;100564.69;;;24.78;43.92
44457;BME280;30159;49.316;8.558;2023-06-04T08:40:15;100566.97;;;24.99;44.67
44457;BME280;30159;49.316;8.558;2023-06-04T08:42:43;100528.38;;;25.33;44.79
44457;BME280;30159;49.316;8.558;2023-06-04T08:45:11;100521.94;;;25.59;44.63
44457;BME280;30159;49.316;8.558;2023-06-04T08:47:40;100516.34;;;25.52;44.09
44457;BME280;30159;49.316;8.558;2023-06-04T08:50:10;100574.13;;;24.77;44.08
44457;BME280;30159;49.316;8.558;2023-06-04T08:52:37;100572.34;;;24.62;44.38
44457;BME280;30159;49.316;8.558;2023-06-04T08:55:07;100575.56;;;24.44;45.93
44457;BME280;30159;49.316;8.558;2023-06-04T08:57:35;100581.06;;;23.98;45.26
44457;BME280;30159;49.316;8.558;2023-06-04T09:00:01;100570.09;;;23.79;46.06
44457;BME280;30159;49.316;8.558;2023-06-04T09:02:30;100585.19;;;24.31;46.58
44457;BME280;30159;49.316;8.558;2023-06-04T09:04:57;100578.09;;;24.79;46.65
44457;BME280;30159;49.316;8.558;2023-06-04T09:07:24;100573.50;;;24.60;43.77
44457;BME280;30159;49.316;8.558;2023-06-04T09:09:51;100575.13;;;24.65;45.07
44457;BME280;30159;49.316;8.558;2023-06-04T09:12:23;100575.50;;;24.64;44.69
44457;BME280;30159;49.316;8.558;2023-06-04T09:14:51;100569.88;;;24.56;45.60
44457;BME280;30159;49.316;8.558;2023-06-04T09:17:21;100580.00;;;24.49;44.70
44457;BME280;30159;49.316;8.558;2023-06-04T09:19:48;100579.25;;;24.29;44.82
44457;BME280;30159;49.316;8.558;2023-06-04T09:22:15;100547.78;;;24.07;44.71
44457;BME280;30159;49.316;8.558;2023-06-04T09:24:43;100583.66;;;24.33;44.59
44457;BME280;30159;49.316;8.558;2023-06-04T09:27:12;100570.91;;;24.25;42.83
44457;BME280;30159;49.316;8.558;2023-06-04T09:29:40;100572.91;;;24.48;44.20
44457;BME280;30159;49.316;8.558;2023-06-04T09:32:07;100578.41;;;24.48;44.14
44457;BME280;30159;49.316;8.558;2023-06-04T09:34:33;100583.84;;;24.44;43.34
44457;BME280;30159;49.316;8.558;2023-06-04T09:37:00;100590.81;;;24.38;42.83
44457;BME280;30159;49.316;8.558;2023-06-04T09:39:26;100587.94;;;24.08;42.25
44457;BME280;30159;49.316;8.558;2023-06-04T09:42:00;100583.00;;;23.94;42.27
44457;BME280;30159;49.316;8.558;2023-06-04T09:44:28;100587.38;;;23.75;41.01
44457;BME280;30159;49.316;8.558;2023-06-04T09:46:56;100578.19;;;23.91;40.08
44457;BME280;30159;49.316;8.558;2023-06-04T09:49:23;100587.31;;;23.95;37.67
44457;BME280;30159;49.316;8.558;2023-06-04T09:51:50;100578.97;;;23.91;39.71
44457;BME280;30159;49.316;8.558;2023-06-04T09:54:17;100582.16;;;23.93;40.14
44457;BME280;30159;49.316;8.558;2023-06-04T09:56:44;100597.03;;;24.08;40.58
44457;BME280;30159;49.316;8.558;2023-06-04T09:59:11;100577.28;;;24.06;40.06
44457;BME280;30159;49.316;8.558;2023-06-04T10:01:40;100551.94;;;23.97;40.13
44457;BME280;30159;49.316;8.558;2023-06-04T10:04:09;100568.84;;;24.18;40.16
44457;BME280;30159;49.316;8.558;2023-06-04T10:06:39;100574.13;;;24.50;39.90
44457;BME280;30159;49.316;8.558;2023-06-04T10:09:06;100574.03;;;24.70;40.71
44457;BME280;30159;49.316;8.558;2023-06-04T10:11:35;100582.13;;;24.86;40.41
44457;BME280;30159;49.316;8.558;2023-06-04T10:14:07;100574.50;;;25.02;40.69
44457;BME280;30159;49.316;8.558;2023-06-04T10:16:37;100576.22;;;25.14;40.67
44457;BME280;30159;49.316;8.558;2023-06-04T10:19:04;100573.09;;;25.15;40.52
44457;BME280;30159;49.316;8.558;2023-06-04T10:21:34;100578.00;;;24.99;40.48
44457;BME280;30159;49.316;8.558;2023-06-04T10:24:01;100524.53;;;24.54;40.97
44457;BME280;30159;49.316;8.558;2023-06-04T10:26:28;100567.22;;;24.90;41.75
44457;BME280;30159;49.316;8.558;2023-06-04T10:28:56;100567.97;;;25.17;42.12
44457;BME280;30159;49.316;8.558;2023-06-04T10:31:23;100555.97;;;25.33;41.59
44457;BME280;30159;49.316;8.558;2023-06-04T10:33:53;100566.50;;;25.23;41.21
44457;BME280;30159;49.316;8.558;2023-06-04T10:36:22;100563.19;;;24.84;41.20
44457;BME280;30159;49.316;8.558;2023-06-04T10:38:51;100560.09;;;24.89;41.41
44457;BME280;30159;49.316;8.558;2023-06-04T10:41:19;100559.06;;;25.01;41.95
44457;BME280;30159;49.316;8.558;2023-06-04T10:43:47;100516.56;;;25.06;41.19
44457;BME280;30159;49.316;8.558;2023-06-04T10:46:16;100548.06;;;25.31;40.93
44457;BME280;30159;49.316;8.558;2023-06-04T10:48:46;100539.53;;;25.43;41.05
44457;BME280;30159;49.316;8.558;2023-06-04T10:51:13;100551.03;;;25.49;41.09
44457;BME280;30159;49.316;8.558;2023-06-04T10:53:40;100542.91;;;24.99;40.87
44457;BME280;30159;49.316;8.558;2023-06-04T10:56:08;100547.09;;;24.59;41.45
44457;BME280;30159;49.316;8.558;2023-06-04T10:58:34;100550.13;;;24.54;42.02
44457;BME280;30159;49.316;8.558;2023-06-04T11:01:01;100550.94;;;24.55;41.93
44457;BME280;30159;49.316;8.558;2023-06-04T11:03:35;100504.50;;;24.57;41.36
44457;BME280;30159;49.316;8.558;2023-06-04T11:06:02;100545.78;;;24.80;40.71
44457;BME280;30159;49.316;8.558;2023-06-04T11:08:29;100541.44;;;24.79;40.94
44457;BME280;30159;49.316;8.558;2023-06-04T11:10:56;100546.47;;;25.00;40.87
44457;BME280;30159;49.316;8.558;2023-06-04T11:13:25;100550.84;;;25.05;40.83
44457;BME280;30159;49.316;8.558;2023-06-04T11:15:51;100541.72;;;25.00;40.66
44457;BME280;30159;49.316;8.558;2023-06-04T11:18:19;100484.25;;;24.76;41.45
44457;BME280;30159;49.316;8.558;2023-06-04T11:20:47;100485.28;;;24.94;41.47
44457;BME280;30159;49.316;8.558;2023-06-04T11:23:15;100532.25;;;25.28;40.94
44457;BME280;30159;49.316;8.558;2023-06-04T11:25:43;100523.69;;;25.07;41.21
44457;BME280;30159;49.316;8.558;2023-06-04T11:28:15;100547.81;;;25.13;39.69
44457;BME280;30159;49.316;8.558;2023-06-04T11:30:43;100525.97;;;25.01;40.72
44457;BME280;30159;49.316;8.558;2023-06-04T11:33:10;100534.72;;;25.07;40.42
44457;BME280;30159;49.316;8.558;2023-06-04T11:35:40;100414.78;;;23.87;40.10
44457;BME280;30159;49.316;8.558;2023-06-04T11:38:09;100527.44;;;24.65;40.77
44457;BME280;30159;49.316;8.558;2023-06-04T11:40:35;100533.81;;;24.69;40.40
44457;BME280;30159;49.316;8.558;2023-06-04T11:43:02;100525.44;;;24.92;41.33
44457;BME280;30159;49.316;8.558;2023-06-04T11:45:29;100491.50;;;24.88;40.49
44457;BME280;30159;49.316;8.558;2023-06-04T11:47:57;100528.22;;;25.22;40.57
44457;BME280;30159;49.316;8.558;2023-06-04T11:50:26;100522.56;;;25.11;40.67
44457;BME280;30159;49.316;8.558;2023-06-04T11:52:53;100517.75;;;25.05;40.81
44457;BME280;30159;49.316;8.558;2023-06-04T11:55:20;100517.19;;;25.22;40.39
44457;BME280;30159;49.316;8.558;2023-06-04T11:57:48;100513.06;;;25.09;40.85
44457;BME280;30159;49.316;8.558;2023-06-04T12:00:15;100519.00;;;25.11;40.16
44457;BME280;30159;49.316;8.558;2023-06-04T12:02:49;100502.91;;;24.86;40.11
44457;BME280;30159;49.316;8.558;2023-06-04T12:05:18;100513.41;;;25.03;40.19
44457;BME280;30159;49.316;8.558;2023-06-04T12:07:45;100515.31;;;24.99;40.81
44457;BME280;30159;49.316;8.558;2023-06-04T12:10:13;100466.94;;;24.79;40.99
44457;BME280;30159;49.316;8.558;2023-06-04T12:12:39;100510.00;;;25.17;40.09
44457;BME280;30159;49.316;8.558;2023-06-04T12:15:07;100494.78;;;24.97;40.02
44457;BME280;30159;49.316;8.558;2023-06-04T12:17:35;100513.06;;;25.09;40.73
44457;BME280;30159;49.316;8.558;2023-06-04T12:20:01;100505.31;;;25.18;40.18
44457;BME280;30159;49.316;8.558;2023-06-04T12:22:30;100500.31;;;24.97;40.44
44457;BME280;30159;49.316;8.558;2023-06-04T12:24:57;100470.22;;;24.88;41.25
44457;BME280;30159;49.316;8.558;2023-06-04T12:27:26;100495.38;;;25.13;39.89
44457;BME280;30159;49.316;8.558;2023-06-04T12:29:57;100485.31;;;24.98;40.30
44457;BME280;30159;49.316;8.558;2023-06-04T12:32:24;100482.34;;;25.14;40.26
44457;BME280;30159;49.316;8.558;2023-06-04T12:34:51;100492.75;;;25.24;40.13
44457;BME280;30159;49.316;8.558;2023-06-04T12:37:17;100482.88;;;25.23;40.42
44457;BME280;30159;49.316;8.558;2023-06-04T12:39:45;100494.50;;;25.39;39.49
44457;BME280;30159;49.316;8.558;2023-06-04T12:42:12;100481.28;;;25.22;39.29
44457;BME280;30159;49.316;8.558;2023-06-04T12:44:39;100491.41;;;25.44;39.80
44457;BME280;30159;49.316;8.558;2023-06-04T12:47:06;100446.94;;;25.19;39.39
44457;BME280;30159;49.316;8.558;2023-06-04T12:49:33;100456.03;;;25.20;39.49
44457;BME280;30159;49.316;8.558;2023-06-04T12:52:00;100487.09;;;25.47;39.72